Columbia — WYR2092 — position and weather

sailwx.info

Track history (hours):
 
Tides and Currents Weather Stations Pressure Air Temp Water Temp Dewpoint Dewpoint Depression Visibility Wind Speed Wind Dir Waves Ship Positions

Columbia

Owner: ALASKA, STATE OF, ANCHORAGE, AK. More information available from US FCC via Universal Licensing System and Coast Guard Vessel Documentation Center.

Last reported at 2019-Jan-23 19:00 UTC. Time now 2019-Jan-23 22:34 UTC.
Position N 56°54' W 134°30'.

Type: Ship. MMSI: 367144000.

Wind from 180 at 15 knots

Barometer 1024.0 mb
Air temperature 3.3 ° C
Visibility: greater than 5.4 NM
Water temperature 7.8 ° C

Date/timePositionNaut miles runAvg speedWind from/ knotsBaromVisibWave heightAir tempDewpointWater temp
2019-Jan-23 19:00N 56°54' W 134°30'   180 / 151024.0 5.4 3.3 7.8
2019-Jan-20 12:38N 54°49' W 130°58'413.1
2019-Jan-20 12:17N 54°45' W 130°54'514.1
2019-Jan-20 11:54N 54°42' W 130°47'614.1
2019-Jan-20 11:30N 54°37' W 130°41'715.0
2019-Jan-20 11:01N 54°30' W 130°38'714.7
2019-Jan-20 10:31N 54°23' W 130°37'815.5
2019-Jan-20 10:00N 54°16' W 130°32'815.8
2019-Jan-20 09:31N 54°09' W 130°25'714.1
2019-Jan-20 09:00N 54°04' W 130°16'917.1
2019-Jan-20 08:30N 53°56' W 130°11'16911.9
2019-Jan-19 18:16N 51°30' W 127°51'915.5
2019-Jan-19 17:43N 51°21' W 127°51'517.2
2019-Jan-19 17:26N 51°16' W 127°53'716.8
2019-Jan-19 17:00N 51°09' W 127°56'612.8
2019-Jan-19 16:30N 51°06' W 127°47'816.2
2019-Jan-19 16:00N 51°01' W 127°36'1019.2
2019-Jan-19 15:30N 50°55' W 127°25'1019.9
2019-Jan-19 15:00N 50°50' W 127°11'1020.1
2019-Jan-19 14:30N 50°44' W 126°59'1619.7
2019-Jan-19 13:43N 50°33' W 126°41'420.4
2019-Jan-19 13:30N 50°31' W 126°35'3320.6
2019-Jan-19 11:53N 50°22' W 125°45'919.8
2019-Jan-19 11:27N 50°21' W 125°32'816.7
2019-Jan-19 11:00N 50°16' W 125°24'917.5
2019-Jan-19 10:31N 50°07' W 125°21'713.4
2019-Jan-19 10:00N 50°02' W 125°14'613.0
2019-Jan-19 09:30N 49°57' W 125°08'917.7
2019-Jan-19 09:00N 49°51' W 124°58'1020.4
2019-Jan-19 08:30N 49°43' W 124°47'1020.2
2019-Jan-19 08:00N 49°36' W 124°36'1020.6
2019-Jan-19 07:30N 49°29' W 124°25'1019.7
2019-Jan-19 07:00N 49°25' W 124°11'1019.9
2019-Jan-19 06:30N 49°22' W 123°56'1019.3
2019-Jan-19 06:00N 49°18' W 123°43'1020.2
2019-Jan-19 05:30N 49°11' W 123°32'1020.7
2019-Jan-19 05:00N 49°04' W 123°20'1019.9
2019-Jan-19 04:30N 48°57' W 123°09'1019.7
2019-Jan-19 04:00N 48°51' W 122°58'919.1
2019-Jan-19 03:30N 48°45' W 122°46'917.9
2019-Jan-19 03:00N 48°38' W 122°37'713.0
2019-Jan-19 02:30N 48°44' W 122°31'0 0.4
2019-Jan-19 01:57N 48°43' W 122°31'0 0.0
2019-Jan-18 15:34N 48°44' W 122°31'0 0.9
2019-Jan-18 15:28N 48°44' W 122°31'5 9.6
2019-Jan-18 14:59N 48°39' W 122°34'511.4
2019-Jan-18 14:30N 48°40' W 122°42'714.5
2019-Jan-18 14:00N 48°46' W 122°49'815.4
2019-Jan-18 13:31N 48°50' W 122°59'815.6
2019-Jan-18 13:00N 48°55' W 123°09'815.8
2019-Jan-18 12:30N 48°60' W 123°17'815.4
2019-Jan-18 12:00N 49°05' W 123°26'815.8
2019-Jan-18 11:31N 49°11' W 123°34'815.2
2019-Jan-18 11:01N 49°16' W 123°42'815.4
2019-Jan-18 10:31N 49°21' W 123°51'815.9
2019-Jan-18 10:00N 49°23' W 124°03'815.9
2019-Jan-18 09:31N 49°25' W 124°15'714.7
2019-Jan-18 09:00N 49°29' W 124°25'815.7
2019-Jan-18 08:30N 49°35' W 124°33'815.5
2019-Jan-18 08:00N 49°40' W 124°41'815.1
2019-Jan-18 07:30N 49°46' W 124°50'715.2
2019-Jan-18 07:00N 49°51' W 124°58'815.3
2019-Jan-18 06:31N 49°56' W 125°07'714.4
2019-Jan-18 06:00N 50°02' W 125°13'612.3
2019-Jan-18 05:30N 50°07' W 125°19'918.0
2019-Jan-18 04:59N 50°16' W 125°24'1015.6
2019-Jan-18 04:20N 50°22' W 125°36'616.8
2019-Jan-18 03:58N 50°22' W 125°45'2416.1
2019-Jan-18 02:27N 50°30' W 126°22'1713.7
2019-Jan-18 01:12N 50°37' W 126°46'415.6
2019-Jan-18 00:59N 50°40' W 126°50'815.7
2019-Jan-18 00:29N 50°44' W 126°60'815.8
2019-Jan-18 00:00N 50°49' W 127°09'815.9
2019-Jan-17 23:30N 50°53' W 127°20'714.6
2019-Jan-17 23:00N 50°57' W 127°29'714.3
2019-Jan-17 22:30N 51°02' W 127°38'714.8
2019-Jan-17 22:00N 51°07' W 127°47'713.5
2019-Jan-17 21:31N 51°12' W 127°53'815.5
2019-Jan-17 21:00N 51°20' W 127°52'815.7
2019-Jan-17 20:30N 51°28' W 127°50'816.5
2019-Jan-17 20:00N 51°36' W 127°53'815.9
2019-Jan-17 19:30N 51°44' W 127°56'815.9
2019-Jan-17 19:00N 51°52' W 127°56'816.5
2019-Jan-17 18:30N 51°60' W 127°56'611.7
2019-Jan-17 18:00N 52°05' W 128°02'611.7
2019-Jan-17 17:30N 52°09' W 128°08'4 7.7
2019-Jan-17 17:00N 52°13' W 128°08'815.4
2019-Jan-17 16:29N 52°15' W 128°21'715.1
2019-Jan-17 16:00N 52°16' W 128°32'816.6
2019-Jan-17 15:30N 52°24' W 128°30'1417.2
2019-Jan-17 14:41N 52°38' W 128°30'615.7
2019-Jan-17 14:19N 52°43' W 128°34'7515.4
2019-Jan-17 09:25N 53°43' W 129°50'511.5
2019-Jan-17 09:00N 53°47' W 129°56'510.7
2019-Jan-17 08:30N 53°51' W 130°02'510.8
2019-Jan-17 08:00N 53°54' W 130°09'510.3
2019-Jan-17 07:30N 53°59' W 130°13'510.9
2019-Jan-17 07:00N 54°04' W 130°16'815.5
2019-Jan-17 06:30N 54°09' W 130°25'815.5
2019-Jan-17 06:00N 54°16' W 130°33'815.2
2019-Jan-17 05:31N 54°23' W 130°37'816.2
2019-Jan-17 05:00N 54°31' W 130°38'814.7
2019-Jan-17 04:29N 54°39' W 130°39'815.3
2019-Jan-17 03:58N 54°43' W 130°51'916.3
2019-Jan-17 03:25N 54°51' W 130°59'  
Track history (hours):
 
Tides and Currents Weather Stations Pressure Air Temp Water Temp Dewpoint Dewpoint Depression Visibility Wind Speed Wind Dir Waves Ship Positions

Columbia

Owner: ALASKA, STATE OF, ANCHORAGE, AK. More information available from US FCC via Universal Licensing System and Coast Guard Vessel Documentation Center.

Last reported at 2019-Jan-23 19:00 UTC. Time now 2019-Jan-23 22:34 UTC.
Position N 56°54' W 134°30'.

Type: Ship. MMSI: 367144000.

Wind from 180 at 15 knots

Barometer 1024.0 mb
Air temperature 3.3 ° C
Visibility: greater than 5.4 NM
Water temperature 7.8 ° C

Date/timePositionNaut miles runAvg speedWind from/ knotsBaromVisibWave heightAir tempDewpointWater temp
2019-Jan-23 19:00N 56°54' W 134°30'   180 / 151024.0 5.4 3.3 7.8
2019-Jan-20 12:38N 54°49' W 130°58'413.1
2019-Jan-20 12:17N 54°45' W 130°54'514.1
2019-Jan-20 11:54N 54°42' W 130°47'614.1
2019-Jan-20 11:30N 54°37' W 130°41'715.0
2019-Jan-20 11:01N 54°30' W 130°38'714.7
2019-Jan-20 10:31N 54°23' W 130°37'815.5
2019-Jan-20 10:00N 54°16' W 130°32'815.8
2019-Jan-20 09:31N 54°09' W 130°25'714.1
2019-Jan-20 09:00N 54°04' W 130°16'917.1
2019-Jan-20 08:30N 53°56' W 130°11'16911.9
2019-Jan-19 18:16N 51°30' W 127°51'915.5
2019-Jan-19 17:43N 51°21' W 127°51'517.2
2019-Jan-19 17:26N 51°16' W 127°53'716.8
2019-Jan-19 17:00N 51°09' W 127°56'612.8
2019-Jan-19 16:30N 51°06' W 127°47'816.2
2019-Jan-19 16:00N 51°01' W 127°36'1019.2
2019-Jan-19 15:30N 50°55' W 127°25'1019.9
2019-Jan-19 15:00N 50°50' W 127°11'1020.1
2019-Jan-19 14:30N 50°44' W 126°59'1619.7
2019-Jan-19 13:43N 50°33' W 126°41'420.4
2019-Jan-19 13:30N 50°31' W 126°35'3320.6
2019-Jan-19 11:53N 50°22' W 125°45'919.8
2019-Jan-19 11:27N 50°21' W 125°32'816.7
2019-Jan-19 11:00N 50°16' W 125°24'917.5
2019-Jan-19 10:31N 50°07' W 125°21'713.4
2019-Jan-19 10:00N 50°02' W 125°14'613.0
2019-Jan-19 09:30N 49°57' W 125°08'917.7
2019-Jan-19 09:00N 49°51' W 124°58'1020.4
2019-Jan-19 08:30N 49°43' W 124°47'1020.2
2019-Jan-19 08:00N 49°36' W 124°36'1020.6
2019-Jan-19 07:30N 49°29' W 124°25'1019.7
2019-Jan-19 07:00N 49°25' W 124°11'1019.9
2019-Jan-19 06:30N 49°22' W 123°56'1019.3
2019-Jan-19 06:00N 49°18' W 123°43'1020.2
2019-Jan-19 05:30N 49°11' W 123°32'1020.7
2019-Jan-19 05:00N 49°04' W 123°20'1019.9
2019-Jan-19 04:30N 48°57' W 123°09'1019.7
2019-Jan-19 04:00N 48°51' W 122°58'919.1
2019-Jan-19 03:30N 48°45' W 122°46'917.9
2019-Jan-19 03:00N 48°38' W 122°37'713.0
2019-Jan-19 02:30N 48°44' W 122°31'0 0.4
2019-Jan-19 01:57N 48°43' W 122°31'0 0.0
2019-Jan-18 15:34N 48°44' W 122°31'0 0.9
2019-Jan-18 15:28N 48°44' W 122°31'5 9.6
2019-Jan-18 14:59N 48°39' W 122°34'511.4
2019-Jan-18 14:30N 48°40' W 122°42'714.5
2019-Jan-18 14:00N 48°46' W 122°49'815.4
2019-Jan-18 13:31N 48°50' W 122°59'815.6
2019-Jan-18 13:00N 48°55' W 123°09'815.8
2019-Jan-18 12:30N 48°60' W 123°17'815.4
2019-Jan-18 12:00N 49°05' W 123°26'815.8
2019-Jan-18 11:31N 49°11' W 123°34'815.2
2019-Jan-18 11:01N 49°16' W 123°42'815.4
2019-Jan-18 10:31N 49°21' W 123°51'815.9
2019-Jan-18 10:00N 49°23' W 124°03'815.9
2019-Jan-18 09:31N 49°25' W 124°15'714.7
2019-Jan-18 09:00N 49°29' W 124°25'815.7
2019-Jan-18 08:30N 49°35' W 124°33'815.5
2019-Jan-18 08:00N 49°40' W 124°41'815.1
2019-Jan-18 07:30N 49°46' W 124°50'715.2
2019-Jan-18 07:00N 49°51' W 124°58'815.3
2019-Jan-18 06:31N 49°56' W 125°07'714.4
2019-Jan-18 06:00N 50°02' W 125°13'612.3
2019-Jan-18 05:30N 50°07' W 125°19'918.0
2019-Jan-18 04:59N 50°16' W 125°24'1015.6
2019-Jan-18 04:20N 50°22' W 125°36'616.8
2019-Jan-18 03:58N 50°22' W 125°45'2416.1
2019-Jan-18 02:27N 50°30' W 126°22'1713.7
2019-Jan-18 01:12N 50°37' W 126°46'415.6
2019-Jan-18 00:59N 50°40' W 126°50'815.7
2019-Jan-18 00:29N 50°44' W 126°60'815.8
2019-Jan-18 00:00N 50°49' W 127°09'815.9
2019-Jan-17 23:30N 50°53' W 127°20'714.6
2019-Jan-17 23:00N 50°57' W 127°29'714.3
2019-Jan-17 22:30N 51°02' W 127°38'714.8
2019-Jan-17 22:00N 51°07' W 127°47'713.5
2019-Jan-17 21:31N 51°12' W 127°53'815.5
2019-Jan-17 21:00N 51°20' W 127°52'815.7
2019-Jan-17 20:30N 51°28' W 127°50'816.5
2019-Jan-17 20:00N 51°36' W 127°53'815.9
2019-Jan-17 19:30N 51°44' W 127°56'815.9
2019-Jan-17 19:00N 51°52' W 127°56'816.5
2019-Jan-17 18:30N 51°60' W 127°56'611.7
2019-Jan-17 18:00N 52°05' W 128°02'611.7
2019-Jan-17 17:30N 52°09' W 128°08'4 7.7
2019-Jan-17 17:00N 52°13' W 128°08'815.4
2019-Jan-17 16:29N 52°15' W 128°21'715.1
2019-Jan-17 16:00N 52°16' W 128°32'816.6
2019-Jan-17 15:30N 52°24' W 128°30'1417.2
2019-Jan-17 14:41N 52°38' W 128°30'615.7
2019-Jan-17 14:19N 52°43' W 128°34'7515.4
2019-Jan-17 09:25N 53°43' W 129°50'511.5
2019-Jan-17 09:00N 53°47' W 129°56'510.7
2019-Jan-17 08:30N 53°51' W 130°02'510.8
2019-Jan-17 08:00N 53°54' W 130°09'510.3
2019-Jan-17 07:30N 53°59' W 130°13'510.9
2019-Jan-17 07:00N 54°04' W 130°16'815.5
2019-Jan-17 06:30N 54°09' W 130°25'815.5
2019-Jan-17 06:00N 54°16' W 130°33'815.2
2019-Jan-17 05:31N 54°23' W 130°37'816.2
2019-Jan-17 05:00N 54°31' W 130°38'814.7
2019-Jan-17 04:29N 54°39' W 130°39'815.3
2019-Jan-17 03:58N 54°43' W 130°51'916.3
2019-Jan-17 03:25N 54°51' W 130°59'  

Dump ship's entire track history